createdAt,value
2018-08-06T00:02:27.111Z,23.48
2018-08-06T00:04:55.228Z,23.53
2018-08-06T00:07:23.524Z,23.56
2018-08-06T00:09:51.592Z,23.62
2018-08-06T00:12:19.551Z,23.52
2018-08-06T00:14:47.439Z,23.44
2018-08-06T00:17:15.446Z,23.47
2018-08-06T00:19:43.499Z,23.49
2018-08-06T00:22:14.409Z,23.55
2018-08-06T00:24:42.226Z,23.58
2018-08-06T00:27:10.284Z,23.58
2018-08-06T00:29:38.269Z,23.60
2018-08-06T00:32:06.251Z,23.55
2018-08-06T00:34:34.186Z,23.49
2018-08-06T00:37:02.244Z,23.48
2018-08-06T00:39:30.238Z,23.47
2018-08-06T00:41:58.169Z,23.42
2018-08-06T00:44:26.580Z,23.38
2018-08-06T00:46:54.538Z,23.35
2018-08-06T00:49:22.451Z,23.38
2018-08-06T00:51:50.911Z,23.38
2018-08-06T00:54:18.799Z,23.37
2018-08-06T00:56:46.872Z,23.36
2018-08-06T00:59:14.936Z,23.32
2018-08-06T01:01:42.959Z,23.24
2018-08-06T01:04:10.861Z,23.26
2018-08-06T01:06:39.024Z,23.17
2018-08-06T01:09:09.249Z,23.16
2018-08-06T01:11:37.701Z,23.17
2018-08-06T01:14:05.619Z,23.12
2018-08-06T01:16:33.707Z,23.08
2018-08-06T01:19:01.754Z,23.06
2018-08-06T01:21:30.069Z,23.10
2018-08-06T01:23:58.157Z,23.11
2018-08-06T01:26:26.119Z,23.13
2018-08-06T01:28:54.408Z,23.13
2018-08-06T01:31:22.417Z,23.14
2018-08-06T01:33:50.239Z,23.13
2018-08-06T01:36:18.508Z,23.09
2018-08-06T01:38:46.411Z,23.09
2018-08-06T01:41:14.363Z,23.07
2018-08-06T01:43:42.658Z,23.04
2018-08-06T01:46:10.643Z,23.01
2018-08-06T01:48:38.551Z,22.96
2018-08-06T01:51:06.682Z,22.97
2018-08-06T01:53:34.556Z,22.95
2018-08-06T01:56:02.585Z,22.91
2018-08-06T01:58:31.135Z,22.83
2018-08-06T02:00:59.104Z,22.79
2018-08-06T02:03:27.124Z,22.75
2018-08-06T02:05:55.526Z,22.72
2018-08-06T02:08:23.581Z,22.68
2018-08-06T02:10:51.554Z,22.61
2018-08-06T02:13:19.716Z,22.57
2018-08-06T02:15:47.787Z,22.51
2018-08-06T02:18:15.775Z,22.45
2018-08-06T02:20:44.012Z,22.38
2018-08-06T02:23:11.876Z,22.36
2018-08-06T02:25:39.784Z,22.29
2018-08-06T02:28:07.640Z,22.23
2018-08-06T02:30:35.458Z,22.15
2018-08-06T02:33:03.393Z,22.14
2018-08-06T02:35:31.564Z,22.10
2018-08-06T02:37:59.443Z,22.04
2018-08-06T02:40:27.478Z,22.06
2018-08-06T02:42:55.382Z,22.07
2018-08-06T02:45:23.275Z,21.95
2018-08-06T02:47:51.139Z,21.92
2018-08-06T02:50:19.635Z,21.94
2018-08-06T02:52:47.545Z,21.94
2018-08-06T02:55:16.196Z,21.91
2018-08-06T02:57:44.227Z,21.89
2018-08-06T03:00:14.378Z,21.84
2018-08-06T03:02:43.722Z,21.79
2018-08-06T03:05:13.687Z,21.79
2018-08-06T03:07:42.943Z,21.78
2018-08-06T03:10:11.206Z,21.78
2018-08-06T03:12:39.260Z,21.69
2018-08-06T03:15:08.635Z,21.68
2018-08-06T03:17:36.833Z,21.72
2018-08-06T03:20:06.219Z,21.67
2018-08-06T03:22:34.215Z,21.65
2018-08-06T03:25:02.341Z,21.63
2018-08-06T03:27:30.570Z,21.60
2018-08-06T03:29:58.529Z,21.59
2018-08-06T03:32:26.353Z,21.66
2018-08-06T03:34:55.018Z,21.70
2018-08-06T03:37:23.172Z,21.76
2018-08-06T03:39:51.106Z,21.79
2018-08-06T03:42:19.551Z,21.85
2018-08-06T03:44:47.578Z,21.88
2018-08-06T03:47:15.410Z,22.02
2018-08-06T03:49:43.440Z,22.09
2018-08-06T03:52:11.343Z,22.18
2018-08-06T03:54:39.322Z,22.22
2018-08-06T03:57:07.418Z,22.31
2018-08-06T03:59:35.545Z,22.43
2018-08-06T04:02:03.966Z,22.58
2018-08-06T04:04:31.986Z,22.68
2018-08-06T04:07:00.047Z,22.83
2018-08-06T04:09:28.373Z,22.93
2018-08-06T04:11:56.430Z,23.02
2018-08-06T04:14:25.630Z,23.16
2018-08-06T04:16:54.003Z,23.33
2018-08-06T04:19:21.972Z,23.45
2018-08-06T04:21:49.752Z,23.59
2018-08-06T04:24:17.861Z,23.66
2018-08-06T04:26:45.881Z,23.83
2018-08-06T04:29:13.824Z,23.95
2018-08-06T04:31:41.889Z,24.10
2018-08-06T04:34:09.771Z,24.22
2018-08-06T04:36:37.739Z,24.36
2018-08-06T04:39:06.901Z,24.43
2018-08-06T04:41:35.027Z,24.48
2018-08-06T04:44:02.959Z,24.52
2018-08-06T04:46:31.280Z,24.66
2018-08-06T04:48:59.192Z,24.77
2018-08-06T04:51:27.220Z,24.90
2018-08-06T04:53:55.888Z,24.94
2018-08-06T04:56:24.103Z,24.95
2018-08-06T04:58:52.227Z,25.10
2018-08-06T05:01:20.287Z,25.32
2018-08-06T05:03:48.264Z,25.33
2018-08-06T05:06:16.202Z,25.21
2018-08-06T05:08:44.488Z,25.46
2018-08-06T05:11:12.538Z,25.65
2018-08-06T05:13:40.567Z,25.87
2018-08-06T05:16:09.115Z,26.08
2018-08-06T05:18:37.111Z,26.24
2018-08-06T05:21:05.288Z,26.33
2018-08-06T05:23:40.470Z,26.40
2018-08-06T05:26:08.764Z,26.60
2018-08-06T05:28:37.214Z,26.55
2018-08-06T05:31:05.957Z,26.65
2018-08-06T05:33:33.814Z,26.82
2018-08-06T05:36:01.721Z,27.15
2018-08-06T05:38:29.918Z,27.34
2018-08-06T05:40:57.911Z,27.57
2018-08-06T05:43:25.973Z,27.98
2018-08-06T05:45:53.911Z,28.00
2018-08-06T05:48:21.764Z,28.21
2018-08-06T05:50:49.589Z,28.27
2018-08-06T05:53:17.443Z,28.22
2018-08-06T05:55:45.340Z,28.37
2018-08-06T05:58:13.183Z,28.47
2018-08-06T06:00:40.964Z,28.25
2018-08-06T06:03:08.814Z,28.07
2018-08-06T06:05:36.591Z,27.70
2018-08-06T06:08:05.088Z,27.67
2018-08-06T06:10:33.075Z,27.53
2018-08-06T06:13:01.124Z,27.42
2018-08-06T06:15:29.299Z,27.15
2018-08-06T06:17:57.098Z,27.01
2018-08-06T06:20:24.981Z,27.03
2018-08-06T06:22:53.183Z,27.05
2018-08-06T06:25:21.147Z,27.04
2018-08-06T06:27:49.094Z,27.10
2018-08-06T06:30:17.726Z,27.18
2018-08-06T06:32:45.683Z,27.21
2018-08-06T06:35:14.092Z,27.26
2018-08-06T06:37:42.749Z,27.30
2018-08-06T06:40:10.801Z,27.19
2018-08-06T06:42:38.718Z,27.30
2018-08-06T06:45:08.258Z,27.38
2018-08-06T06:47:36.174Z,27.43
2018-08-06T06:50:04.432Z,27.43
2018-08-06T06:52:32.809Z,27.40
2018-08-06T06:55:00.522Z,27.42
2018-08-06T06:57:28.564Z,27.44
2018-08-06T06:59:56.597Z,27.51
2018-08-06T07:02:24.449Z,27.47
2018-08-06T07:04:52.623Z,27.22
2018-08-06T07:07:20.515Z,27.53
2018-08-06T07:09:48.385Z,27.55
2018-08-06T07:12:16.302Z,27.52
2018-08-06T07:14:44.710Z,27.62
2018-08-06T07:17:12.600Z,27.80
2018-08-06T07:19:40.466Z,28.00
2018-08-06T07:22:08.996Z,28.11
2018-08-06T07:24:36.840Z,28.23
2018-08-06T07:27:04.809Z,28.33
2018-08-06T07:29:33.227Z,28.42
2018-08-06T07:32:01.110Z,28.53
2018-08-06T07:34:28.994Z,28.60
2018-08-06T07:36:57.431Z,28.74
2018-08-06T07:39:25.216Z,28.70
2018-08-06T07:41:52.949Z,28.79
2018-08-06T07:44:20.866Z,28.72
2018-08-06T07:46:48.733Z,28.64
2018-08-06T07:49:16.629Z,28.76
2018-08-06T07:51:44.552Z,28.89
2018-08-06T07:54:12.454Z,28.94
2018-08-06T07:56:40.432Z,29.05
2018-08-06T07:59:08.302Z,29.10
2018-08-06T08:01:36.118Z,29.21
2018-08-06T08:04:04.119Z,29.25
2018-08-06T08:06:32.133Z,29.31
2018-08-06T08:08:59.982Z,29.35
2018-08-06T08:11:27.844Z,29.38
2018-08-06T08:13:55.942Z,29.56
2018-08-06T08:16:23.772Z,29.68
2018-08-06T08:18:51.739Z,29.81
2018-08-06T08:21:20.200Z,30.04
2018-08-06T08:23:48.079Z,30.19
2018-08-06T08:26:16.173Z,30.09
2018-08-06T08:28:44.147Z,30.22
2018-08-06T08:31:12.952Z,30.26
2018-08-06T08:33:40.920Z,30.29
2018-08-06T08:36:08.772Z,30.38
2018-08-06T08:38:36.671Z,30.27
2018-08-06T08:41:04.744Z,30.53
2018-08-06T08:43:32.758Z,30.75
2018-08-06T08:46:00.733Z,30.90
2018-08-06T08:48:28.675Z,31.11
2018-08-06T08:50:56.595Z,30.97
2018-08-06T08:53:24.622Z,31.13
2018-08-06T08:55:52.556Z,31.21
2018-08-06T08:58:20.400Z,31.32
2018-08-06T09:00:48.200Z,31.26
2018-08-06T09:03:16.146Z,31.40
2018-08-06T09:05:44.524Z,31.56
2018-08-06T09:08:12.439Z,31.52
2018-08-06T09:10:40.344Z,31.56
2018-08-06T09:13:08.247Z,31.55
2018-08-06T09:15:36.139Z,31.43
2018-08-06T09:18:04.122Z,31.45
2018-08-06T09:20:32.098Z,31.63
2018-08-06T09:22:59.931Z,31.78
2018-08-06T09:25:27.819Z,31.54
2018-08-06T09:27:55.694Z,31.86
2018-08-06T09:30:24.444Z,32.08
2018-08-06T09:32:53.603Z,32.23
2018-08-06T09:35:21.922Z,32.36
2018-08-06T09:37:50.564Z,32.27
2018-08-06T09:40:19.594Z,32.50
2018-08-06T09:42:48.326Z,32.36
2018-08-06T09:45:17.441Z,32.27
2018-08-06T09:47:46.694Z,32.22
2018-08-06T09:50:15.425Z,32.63
2018-08-06T09:52:44.296Z,32.99
2018-08-06T09:55:17.186Z,33.26
2018-08-06T09:57:45.246Z,33.50
2018-08-06T10:00:23.526Z,33.53
2018-08-06T10:02:52.095Z,33.55
2018-08-06T10:05:21.063Z,33.77
2018-08-06T10:07:49.285Z,33.93
2018-08-06T10:10:17.157Z,34.18
2018-08-06T10:12:45.590Z,34.28
2018-08-06T10:15:14.324Z,34.24
2018-08-06T10:17:43.217Z,34.21
2018-08-06T10:20:13.238Z,33.91
2018-08-06T10:22:41.594Z,33.94
2018-08-06T10:25:11.118Z,34.12
2018-08-06T10:27:39.917Z,34.49
2018-08-06T10:30:23.526Z,34.71
2018-08-06T10:32:51.336Z,34.59
2018-08-06T10:35:19.884Z,34.68
2018-08-06T10:37:47.994Z,34.66
2018-08-06T10:40:20.957Z,34.54
2018-08-06T10:42:49.035Z,34.25
2018-08-06T10:45:18.996Z,33.83
2018-08-06T10:47:47.296Z,33.08
2018-08-06T10:50:15.256Z,33.30
2018-08-06T10:52:43.175Z,33.25
2018-08-06T10:55:11.516Z,33.50
2018-08-06T10:57:41.159Z,33.41
2018-08-06T11:00:22.174Z,33.48
2018-08-06T11:02:50.824Z,33.30
2018-08-06T11:05:19.389Z,33.17
2018-08-06T11:07:47.185Z,33.15
2018-08-06T11:10:16.583Z,33.36
2018-08-06T11:12:44.419Z,33.44
2018-08-06T11:15:22.201Z,33.45
2018-08-06T11:17:50.296Z,33.61
2018-08-06T11:20:19.006Z,33.85
2018-08-06T11:22:47.374Z,33.98
2018-08-06T11:25:16.792Z,34.12
2018-08-06T11:27:44.792Z,34.20
2018-08-06T11:30:15.784Z,34.15
2018-08-06T11:32:44.730Z,34.08
2018-08-06T11:35:14.021Z,34.12
2018-08-06T11:37:42.347Z,34.15
2018-08-06T11:40:11.287Z,34.02
2018-08-06T11:42:39.956Z,33.91
2018-08-06T11:45:09.497Z,34.05
2018-08-06T11:47:37.441Z,34.05
2018-08-06T11:50:05.839Z,34.14
2018-08-06T11:52:34.103Z,34.31
2018-08-06T11:55:02.140Z,34.46
2018-08-06T11:57:30.072Z,34.21
2018-08-06T11:59:58.340Z,33.96
2018-08-06T12:02:26.702Z,33.93
2018-08-06T12:04:54.623Z,34.09
2018-08-06T12:07:23.140Z,33.95
2018-08-06T12:09:51.106Z,34.14
2018-08-06T12:12:19.536Z,33.84
2018-08-06T12:14:48.791Z,33.52
2018-08-06T12:17:16.754Z,33.38
2018-08-06T12:19:44.603Z,33.51
2018-08-06T12:22:12.728Z,33.74
2018-08-06T12:24:40.606Z,33.87
2018-08-06T12:27:08.589Z,33.36
2018-08-06T12:29:36.424Z,33.29
2018-08-06T12:32:04.392Z,33.60
2018-08-06T12:34:32.274Z,33.87
2018-08-06T12:37:00.596Z,33.98
2018-08-06T12:39:28.542Z,34.07
2018-08-06T12:41:56.444Z,34.13
2018-08-06T12:44:24.388Z,34.25
2018-08-06T12:46:52.335Z,34.05
2018-08-06T12:49:20.339Z,34.15
2018-08-06T12:51:48.850Z,34.22
2018-08-06T12:54:16.726Z,34.07
2018-08-06T12:56:44.623Z,34.21
2018-08-06T12:59:12.543Z,34.13
2018-08-06T13:01:40.402Z,34.20
2018-08-06T13:04:08.152Z,34.12
2018-08-06T13:06:36.604Z,34.21
2018-08-06T13:09:07.467Z,34.25
2018-08-06T13:11:35.268Z,34.26
2018-08-06T13:14:03.666Z,33.77
2018-08-06T13:16:31.547Z,33.45
2018-08-06T13:18:59.468Z,33.74
2018-08-06T13:21:27.868Z,33.96
2018-08-06T13:23:55.685Z,34.18
2018-08-06T13:26:23.566Z,34.20
2018-08-06T13:28:51.855Z,34.15
2018-08-06T13:31:19.771Z,34.25
2018-08-06T13:33:47.460Z,34.27
2018-08-06T13:36:15.383Z,34.30
2018-08-06T13:38:43.388Z,34.37
2018-08-06T13:41:11.233Z,34.46
2018-08-06T13:43:39.084Z,34.51
2018-08-06T13:46:07.284Z,34.51
2018-08-06T13:48:35.134Z,34.50
2018-08-06T13:51:03.490Z,34.39
2018-08-06T13:53:31.471Z,34.42
2018-08-06T13:55:59.364Z,34.43
2018-08-06T13:58:27.383Z,34.47
2018-08-06T14:00:55.482Z,34.45
2018-08-06T14:03:23.394Z,34.47
2018-08-06T14:05:51.901Z,34.51
2018-08-06T14:08:19.815Z,34.40
2018-08-06T14:10:47.841Z,34.37
2018-08-06T14:13:16.278Z,34.19
2018-08-06T14:15:44.356Z,33.98
2018-08-06T14:18:13.493Z,34.01
2018-08-06T14:20:41.670Z,34.04
2018-08-06T14:23:09.738Z,34.07
2018-08-06T14:25:37.778Z,34.14
2018-08-06T14:28:05.764Z,34.20
2018-08-06T14:30:33.733Z,34.13
2018-08-06T14:33:01.755Z,34.17
2018-08-06T14:35:30.783Z,34.21
2018-08-06T14:37:58.810Z,34.30
2018-08-06T14:40:26.724Z,34.37
2018-08-06T14:42:55.326Z,34.43
2018-08-06T14:45:23.214Z,34.48
2018-08-06T14:47:51.130Z,34.49
2018-08-06T14:50:19.386Z,34.44
2018-08-06T14:52:47.348Z,34.46
2018-08-06T14:55:15.322Z,34.37
2018-08-06T14:57:43.239Z,34.18
2018-08-06T15:00:17.934Z,34.07
2018-08-06T15:02:46.639Z,33.92
2018-08-06T15:05:14.434Z,33.84
2018-08-06T15:07:42.704Z,33.74
2018-08-06T15:10:11.680Z,33.79
2018-08-06T15:12:39.844Z,33.68
2018-08-06T15:15:13.485Z,33.66
2018-08-06T15:17:55.206Z,33.62
2018-08-06T15:20:23.998Z,33.66
2018-08-06T15:22:56.193Z,33.66
2018-08-06T15:25:24.873Z,33.58
2018-08-06T15:27:57.421Z,33.58
2018-08-06T15:30:25.932Z,33.47
2018-08-06T15:32:55.652Z,33.24
2018-08-06T15:35:32.737Z,33.19
2018-08-06T15:38:02.179Z,33.11
2018-08-06T15:40:30.663Z,33.01
2018-08-06T15:43:00.896Z,32.78
2018-08-06T15:45:30.089Z,32.78
2018-08-06T15:47:58.592Z,32.74
2018-08-06T15:50:27.306Z,32.73
2018-08-06T15:52:56.176Z,32.67
2018-08-06T15:55:30.604Z,32.56
2018-08-06T15:57:58.773Z,32.52
2018-08-06T16:00:27.041Z,32.54
2018-08-06T16:02:55.443Z,32.47
2018-08-06T16:05:24.676Z,32.44
2018-08-06T16:07:52.978Z,32.41
2018-08-06T16:10:21.777Z,32.43
2018-08-06T16:12:51.005Z,32.45
2018-08-06T16:15:24.681Z,32.44
2018-08-06T16:17:52.957Z,32.45
2018-08-06T16:20:21.228Z,32.41
2018-08-06T16:22:50.454Z,32.44
2018-08-06T16:25:19.739Z,32.41
2018-08-06T16:27:48.030Z,32.40
2018-08-06T16:30:22.966Z,32.27
2018-08-06T16:32:51.820Z,32.22
2018-08-06T16:35:21.446Z,32.14
2018-08-06T16:37:51.382Z,32.06
2018-08-06T16:40:19.639Z,32.02
2018-08-06T16:42:48.517Z,31.89
2018-08-06T16:45:16.778Z,31.87
2018-08-06T16:47:48.677Z,31.88
2018-08-06T16:50:18.352Z,31.84
2018-08-06T16:52:46.812Z,31.79
2018-08-06T16:55:14.809Z,31.80
2018-08-06T16:57:44.417Z,31.83
2018-08-06T17:00:15.579Z,31.81
2018-08-06T17:02:44.072Z,31.68
2018-08-06T17:05:17.340Z,31.68
2018-08-06T17:07:46.731Z,31.65
2018-08-06T17:10:18.490Z,31.58
2018-08-06T17:12:49.270Z,31.50
2018-08-06T17:15:18.584Z,31.34
2018-08-06T17:17:49.045Z,31.19
2018-08-06T17:20:19.122Z,31.02
2018-08-06T17:22:48.849Z,30.84
2018-08-06T17:25:17.355Z,30.68
2018-08-06T17:27:46.603Z,30.54
2018-08-06T17:30:19.568Z,30.37
2018-08-06T17:32:48.516Z,30.24
2018-08-06T17:35:20.152Z,30.10
2018-08-06T17:37:49.588Z,29.92
2018-08-06T17:40:18.629Z,29.66
2018-08-06T17:42:53.862Z,29.44
2018-08-06T17:45:25.768Z,29.41
2018-08-06T17:47:54.031Z,29.34
2018-08-06T17:50:23.401Z,29.37
2018-08-06T17:52:56.265Z,29.31
2018-08-06T17:55:24.641Z,29.07
2018-08-06T17:57:53.881Z,28.90
2018-08-06T18:00:22.308Z,29.02
2018-08-06T18:02:50.828Z,29.12
2018-08-06T18:05:22.808Z,29.05
2018-08-06T18:07:51.258Z,29.00
2018-08-06T18:10:24.912Z,29.00
2018-08-06T18:12:53.343Z,28.85
2018-08-06T18:15:22.259Z,28.83
2018-08-06T18:17:51.045Z,28.89
2018-08-06T18:20:19.533Z,28.84
2018-08-06T18:22:48.793Z,28.94
2018-08-06T18:25:18.326Z,28.85
2018-08-06T18:27:47.836Z,28.77
2018-08-06T18:30:18.882Z,28.69
2018-08-06T18:32:47.457Z,28.66
2018-08-06T18:35:17.562Z,28.56
2018-08-06T18:37:45.715Z,28.49
2018-08-06T18:40:14.778Z,28.47
2018-08-06T18:42:43.228Z,28.41
2018-08-06T18:45:13.849Z,28.35
2018-08-06T18:47:42.648Z,28.28
2018-08-06T18:50:12.008Z,28.16
2018-08-06T18:52:40.308Z,28.07
2018-08-06T18:55:10.338Z,28.02
2018-08-06T18:57:38.436Z,28.00
2018-08-06T19:00:08.872Z,27.96
2018-08-06T19:02:37.339Z,27.91
2018-08-06T19:05:05.957Z,27.77
2018-08-06T19:07:33.787Z,27.64
2018-08-06T19:10:02.419Z,27.55
2018-08-06T19:12:35.955Z,27.47
2018-08-06T19:15:04.545Z,27.37
2018-08-06T19:17:32.602Z,27.27
2018-08-06T19:20:00.563Z,27.20
2018-08-06T19:22:28.901Z,27.13
2018-08-06T19:25:02.139Z,27.06
2018-08-06T19:27:30.167Z,27.05
2018-08-06T19:29:58.243Z,27.02
2018-08-06T19:32:26.188Z,26.98
2018-08-06T19:34:58.555Z,26.91
2018-08-06T19:37:32.055Z,26.87
2018-08-06T19:40:00.091Z,26.82
2018-08-06T19:42:32.619Z,26.79
2018-08-06T19:45:00.974Z,26.80
2018-08-06T19:47:28.936Z,26.78
2018-08-06T19:51:01.239Z,26.81
2018-08-06T19:53:29.204Z,26.74
2018-08-06T19:56:02.808Z,26.83
2018-08-06T19:58:30.668Z,26.77
2018-08-06T20:00:58.720Z,26.91
2018-08-06T20:03:26.756Z,26.93
2018-08-06T20:05:54.708Z,26.90
2018-08-06T20:08:22.674Z,26.90
2018-08-06T20:10:50.642Z,26.83
2018-08-06T20:13:19.801Z,26.74
2018-08-06T20:15:47.878Z,26.59
2018-08-06T20:18:16.338Z,26.45
2018-08-06T20:20:44.233Z,26.34
2018-08-06T20:23:12.234Z,26.32
2018-08-06T20:25:40.347Z,26.23
2018-08-06T20:28:08.277Z,26.26
2018-08-06T20:30:36.504Z,26.16
2018-08-06T20:33:05.207Z,26.05
2018-08-06T20:35:33.205Z,25.98
2018-08-06T20:38:01.313Z,25.92
2018-08-06T20:40:29.517Z,25.84
2018-08-06T20:42:57.847Z,25.77
2018-08-06T20:45:26.622Z,25.73
2018-08-06T20:47:54.955Z,25.69
2018-08-06T20:50:23.930Z,25.66
2018-08-06T20:52:52.962Z,25.72
2018-08-06T20:55:22.215Z,25.76
2018-08-06T20:57:50.601Z,25.72
2018-08-06T21:00:22.703Z,25.74
2018-08-06T21:02:51.259Z,25.76
2018-08-06T21:05:19.524Z,25.83
2018-08-06T21:07:47.853Z,25.82
2018-08-06T21:10:16.681Z,25.79
2018-08-06T21:12:45.000Z,25.78
2018-08-06T21:15:14.015Z,25.72
2018-08-06T21:17:42.658Z,25.65
2018-08-06T21:20:12.091Z,25.53
2018-08-06T21:22:41.075Z,25.43
2018-08-06T21:25:10.615Z,25.36
2018-08-06T21:27:39.216Z,25.36
2018-08-06T21:30:09.680Z,25.31
2018-08-06T21:32:38.249Z,25.22
2018-08-06T21:35:06.859Z,25.18
2018-08-06T21:37:35.122Z,25.11
2018-08-06T21:40:03.640Z,25.02
2018-08-06T21:42:31.799Z,25.01
2018-08-06T21:44:59.693Z,25.12
2018-08-06T21:47:27.687Z,25.05
2018-08-06T21:49:55.830Z,25.00
2018-08-06T21:52:23.761Z,24.96
2018-08-06T21:54:52.322Z,24.95
2018-08-06T21:57:20.350Z,24.91
2018-08-06T21:59:48.376Z,24.89
2018-08-06T22:02:16.867Z,24.88
2018-08-06T22:04:44.878Z,24.92
2018-08-06T22:07:12.744Z,24.87
2018-08-06T22:09:41.135Z,24.92
2018-08-06T22:12:09.183Z,25.03
2018-08-06T22:14:37.366Z,25.07
2018-08-06T22:17:05.764Z,25.11
2018-08-06T22:19:33.751Z,25.21
2018-08-06T22:22:01.831Z,25.21
2018-08-06T22:24:29.900Z,25.18
2018-08-06T22:26:57.878Z,25.12
2018-08-06T22:29:25.871Z,25.09
2018-08-06T22:31:53.869Z,25.06
2018-08-06T22:34:21.916Z,25.04
2018-08-06T22:36:49.941Z,25.02
2018-08-06T22:39:17.930Z,25.02
2018-08-06T22:41:46.017Z,24.97
2018-08-06T22:44:14.070Z,24.93
2018-08-06T22:46:42.159Z,24.85
2018-08-06T22:49:10.213Z,24.75
2018-08-06T22:51:38.158Z,24.67
2018-08-06T22:54:06.008Z,24.61
2018-08-06T22:56:34.063Z,24.53
2018-08-06T22:59:02.212Z,24.41
2018-08-06T23:01:30.227Z,24.34
2018-08-06T23:03:58.075Z,24.29
2018-08-06T23:06:26.128Z,24.24
2018-08-06T23:08:54.369Z,24.19
2018-08-06T23:11:22.419Z,24.12
2018-08-06T23:13:50.438Z,24.05
2018-08-06T23:16:18.804Z,23.97
2018-08-06T23:18:46.803Z,23.95
2018-08-06T23:21:14.824Z,23.90
2018-08-06T23:23:42.813Z,23.84
2018-08-06T23:26:10.734Z,23.79
2018-08-06T23:28:38.769Z,23.71
2018-08-06T23:31:07.079Z,23.66
2018-08-06T23:33:34.937Z,23.63
2018-08-06T23:36:02.769Z,23.57
2018-08-06T23:38:30.953Z,23.49
2018-08-06T23:40:59.134Z,23.43
2018-08-06T23:43:27.174Z,23.41
2018-08-06T23:45:55.763Z,23.37
2018-08-06T23:48:23.915Z,23.33
2018-08-06T23:50:51.943Z,23.33
2018-08-06T23:53:20.020Z,23.32
2018-08-06T23:55:47.987Z,23.27
2018-08-06T23:58:16.167Z,23.24
